Главная страница
METAR-TAF:

METAR-TAF

Аэропорты :

Ургенч, Узбекистан

широта: 41-35N, долгота: 060-38-42E, высота над уровнем моря: 98 м

Текущие метеонаблюдения

Эта сводка был подготовлена 34 минут назад, в 06:00 UTC
Ветер 4 Узел от северный
Температура 27°C
Влажность 30%
Давление 1015 hPa
Видимость 10 км и более
Нет облачности ниже 1500 м, и нет кучево-дождевой облачности

METAR: UTNU 210600Z 35004KT CAVOK 27/08 Q1015 R31/CLRD70 NOSIG

Время: 11:34 (06:34 UTC)

Прогноз

Эта сводка был подготовлена 1 час и 34 минут назад, в 05:00 UTC
Прогноз действительный с 21-го 06 UTC до 22-го 06 UTC
Ветер 12 Узел от северо-восточный с порывами до 22 Узел
Видимость: 7000 м
временами
С 21-го 06 UTC до 21-го 12 UTC
Ветер 10 Узел от северо-северо-восточный

TAF: UTNU 210500Z 2106/2206 04012G22KT 7000 NSC TEMPO 2106/2112 02010KT

Метеонаблюдения и прогнозы для более 4000 аэропортов (сводки METAR и TAF).

Имеющиеся станции представлены на карте желтыми и красными точками.

Чтобы увидеть название станции, наведите на нее мышь.

Затем щелкните, чтобы увидеть метеонаблюдения и метеопрогнозы.

Управление картой: чтобы увеличить масштаб, щелкните зеленые кнопки с черным крестиком; чтобы уменьшить масштаб, щелкните зеленую кнопку с тире; для просмотра соседних карт щелкайте зеленые стрелки.


METAR-TAF: